Hallsville, Illinois
Current Conditions -  °F | °C
As of 4:15 PM on Tuesday 25 Nov 2014 (Local Time) from KAAA Reporting Station
Broken Clouds Broken Clouds  
Wind Chill: 32°   Ceiling: 2200
Heat Index: 32°   Visibility: 10mi
Dew Point: 24°   Wind: 0mph
Humidity: 73%   Direction: NA
Pressure: 30.17"   Gusts: NA
Location:  40.143°N, 88.9637°W
Report Text: KAAA 252215Z AUTO 00000KT 10SM BKN022 00/M04 A3017 RMK AO2 T00001044
Loading
Personal Weather Stations






























Interactive Weather Map New forecast layout! Learn more

10-Day Weather Forecast

Advertisements
Track Severe Weather on mobile